West Dade, Florida
Current Conditions -  °F | °C
As of 7:53 PM on Saturday 25 Oct 2014 (Local Time) from KTMB Reporting Station
Clear Clear  
Wind Chill: 25°   Ceiling: Unl
Heat Index: 26°   Visibility: 10mi
Dew Point: 16°   Wind: 9mph
Humidity: 58%   Direction: 40°NE
Pressure: 29.92"   Gusts: NA
Location:  25.5736°N, 80.7073°W
Report Text: KTMB 252353Z 04008KT 10SM CLR 25/16 A2992 RMK AO2 SLP132 T02500161 10300 20250 53014
Loading
Personal Weather Stations






























Interactive Weather Map
Tropical Storm Tracking
New forecast layout! Learn more

10-Day Weather Forecast

Advertisements
Track Severe Weather on mobile